Terminal Aerodrome Forecast
Issued by NWS

Home | Current Version | Previous Version | Text Only | Print | Product List | Glossary On
Versions: 1 2 3 4 5 6 7 8 9 10 11 12 13 14 15 16 17
000
FTUS44 KTSA 041700
TAFBVO
TAF
KBVO 041720Z 0418/0518 01015G22KT 4SM -SN OVC025
      TEMPO 0418/0421 1SM -SN OVC008
     FM042100 02013G20KT P6SM OVC050
     FM050000 03010G16KT P6SM OVC100
     FM050500 05006KT P6SM BKN250=

USA.gov is the U.S. government's official web portal to all federal, state and local government web resources and services.